Time;durP1;ratioP1;P1;durP2;ratioP2;P2;SDS_P1;SDS_P2;PMS_P1;PMS_P2;Temp;Humidity;BMP_temperature;BMP_pressure;BME280_temperature;BME280_humidity;BME280_pressure;Samples;Min_cycle;Max_cycle;Signal;HPM_P1;HPM_P2
2022/12/09 00:01:07;;;;;;;44.35;23.02;;;;;;;-0.32;100.00;95486.34;4977746;28;20042;-70
2022/12/09 00:03:33;;;;;;;46.55;23.38;;;;;;;-0.34;100.00;95483.97;4982431;28;20065;-70
2022/12/09 00:05:58;;;;;;;46.25;24.42;;;;;;;-0.34;100.00;95470.53;4982136;28;20053;-70
2022/12/09 00:08:24;;;;;;;46.65;22.23;;;;;;;-0.33;100.00;95468.63;4975256;28;20042;-70
2022/12/09 00:10:49;;;;;;;46.33;24.13;;;;;;;-0.31;100.00;95475.25;4981689;28;20042;-71
2022/12/09 00:13:14;;;;;;;41.72;22.58;;;;;;;-0.31;100.00;95479.84;4975726;28;20843;-70
2022/12/09 00:15:41;;;;;;;48.72;24.25;;;;;;;-0.32;100.00;95480.97;4978652;28;20055;-70
2022/12/09 00:18:08;;;;;;;46.85;24.75;;;;;;;-0.33;100.00;95480.16;4976172;28;20038;-69
2022/12/09 00:20:34;;;;;;;48.55;24.35;;;;;;;-0.33;100.00;95474.00;4981938;28;20488;-70
2022/12/09 00:22:59;;;;;;;46.78;22.50;;;;;;;-0.31;100.00;95471.75;4981479;28;20053;-70
2022/12/09 00:25:25;;;;;;;47.97;23.52;;;;;;;-0.31;100.00;95480.63;4976338;28;20042;-71
2022/12/09 00:27:50;;;;;;;44.75;24.80;;;;;;;-0.31;100.00;95472.53;4982193;28;20499;-71
2022/12/09 00:30:15;;;;;;;44.40;22.83;;;;;;;-0.32;100.00;95462.91;4976995;28;20077;-71
2022/12/09 00:32:41;;;;;;;44.75;22.88;;;;;;;-0.32;100.00;95462.13;4981888;28;20038;-68
2022/12/09 00:35:07;;;;;;;42.40;23.45;;;;;;;-0.28;100.00;95452.28;4977997;28;20038;-71
2022/12/09 00:37:33;;;;;;;48.35;22.73;;;;;;;-0.28;100.00;95463.81;4987992;28;20037;-70
2022/12/09 00:39:58;;;;;;;44.25;20.98;;;;;;;-0.27;100.00;95449.28;5001669;28;20038;-70
2022/12/09 00:42:24;;;;;;;46.65;24.40;;;;;;;-0.24;100.00;95448.59;4990245;28;20224;-71
2022/12/09 00:44:49;;;;;;;47.05;22.45;;;;;;;-0.15;100.00;95453.16;4991628;28;20082;-70
2022/12/09 00:47:14;;;;;;;45.28;23.05;;;;;;;-0.19;100.00;95444.94;4991347;28;20045;-71
2022/12/09 00:49:40;;;;;;;44.42;23.98;;;;;;;-0.16;100.00;95449.66;4998665;28;20046;-71
2022/12/09 00:52:05;;;;;;;46.40;22.00;;;;;;;-0.13;100.00;95451.69;4996296;28;20049;-71
2022/12/09 00:54:31;;;;;;;44.30;22.98;;;;;;;0.14;100.00;95453.06;5000463;28;20037;-69
2022/12/09 00:56:56;;;;;;;43.80;23.40;;;;;;;0.29;100.00;95457.06;4998722;28;20190;-70
2022/12/09 00:59:22;;;;;;;48.08;22.35;;;;;;;0.29;100.00;95457.06;4987896;28;20152;-69
2022/12/09 01:01:47;;;;;;;39.70;20.83;;;;;;;0.40;100.00;95465.53;4989810;28;20185;-70
2022/12/09 01:04:13;;;;;;;43.30;21.73;;;;;;;0.42;100.00;95478.66;4999864;28;20052;-70
2022/12/09 01:06:38;;;;;;;41.03;21.77;;;;;;;0.49;100.00;95476.22;5004809;28;20522;-70
2022/12/09 01:09:04;;;;;;;41.25;21.08;;;;;;;0.62;100.00;95479.75;4987700;28;20034;-70
2022/12/09 01:11:29;;;;;;;41.63;21.05;;;;;;;0.58;100.00;95474.22;5016339;28;20057;-70
2022/12/09 01:14:00;;;;;;;42.30;20.73;;;;;;;0.55;100.00;95480.28;4995976;28;20034;-70
2022/12/09 01:16:28;;;;;;;37.08;20.00;;;;;;;0.52;100.00;95483.63;4986734;28;20037;-71
2022/12/09 01:18:58;;;;;;;36.72;19.52;;;;;;;0.47;100.00;95483.81;4990077;28;20081;-70
2022/12/09 01:21:23;;;;;;;35.65;19.98;;;;;;;0.50;100.00;95477.78;4990691;28;20831;-70
2022/12/09 01:23:49;;;;;;;39.55;19.95;;;;;;;0.49;100.00;95471.63;4994462;28;20053;-70
2022/12/09 01:26:14;;;;;;;41.65;21.17;;;;;;;0.43;100.00;95472.91;4987686;28;20123;-70
2022/12/09 01:28:40;;;;;;;45.38;23.30;;;;;;;0.46;100.00;95466.09;4994915;28;20487;-70
2022/12/09 01:31:18;;;;;;;42.22;22.25;;;;;;;0.41;100.00;95467.09;5023254;28;20039;-71
2022/12/09 01:33:44;;;;;;;47.03;22.40;;;;;;;0.53;100.00;95456.34;4996596;28;20045;-71
2022/12/09 01:36:15;;;;;;;43.17;23.10;;;;;;;0.63;100.00;95463.25;4992154;28;20042;-70
2022/12/09 01:38:40;;;;;;;41.88;22.33;;;;;;;0.63;100.00;95459.75;4997835;28;20483;-70
2022/12/09 01:41:06;;;;;;;48.05;21.60;;;;;;;0.64;100.00;95459.41;4987079;28;20053;-71
2022/12/09 01:43:31;;;;;;;41.80;22.02;;;;;;;0.66;100.00;95448.31;4999177;28;20038;-70
2022/12/09 01:45:57;;;;;;;41.67;22.52;;;;;;;0.64;100.00;95448.63;4998618;28;20076;-70
2022/12/09 01:48:26;;;;;;;43.67;22.98;;;;;;;0.57;100.00;95446.47;4994582;28;20295;-70
2022/12/09 01:50:57;;;;;;;43.22;23.83;;;;;;;0.43;100.00;95448.69;5003069;28;20046;-69
2022/12/09 01:53:26;;;;;;;52.50;25.67;;;;;;;0.08;100.00;95434.75;5000027;28;20188;-70
2022/12/09 01:55:54;;;;;;;53.63;26.42;;;;;;;-0.29;100.00;95426.47;5006931;28;20049;-70
2022/12/09 01:58:20;;;;;;;54.08;26.65;;;;;;;-0.34;100.00;95426.66;5001779;28;20101;-70
2022/12/09 02:00:46;;;;;;;50.67;25.88;;;;;;;-0.29;100.00;95419.22;5004571;28;20061;-70
2022/12/09 02:03:12;;;;;;;94.60;63.30;;;;;;;0.01;100.00;95415.66;4989860;28;20045;-68
2022/12/09 02:05:38;;;;;;;60.03;34.75;;;;;;;0.12;100.00;95416.81;4999873;28;20046;-67
2022/12/09 02:08:10;;;;;;;46.47;24.48;;;;;;;0.26;100.00;95414.63;5023942;28;20046;-67
2022/12/09 02:10:48;;;;;;;49.85;26.25;;;;;;;0.31;100.00;95410.97;4996703;28;20046;-66
2022/12/09 02:13:30;;;;;;;50.10;26.20;;;;;;;0.28;100.00;95406.22;4993698;28;20041;-68
2022/12/09 02:15:59;;;;;;;45.15;24.77;;;;;;;0.24;100.00;95405.31;4996975;28;20034;-68
2022/12/09 02:18:52;;;;;;;49.70;29.02;;;;;;;0.16;100.00;95401.56;4992116;28;20214;-69
2022/12/09 02:21:25;;;;;;;44.88;24.63;;;;;;;0.07;100.00;95401.66;4996142;28;20112;-70
2022/12/09 02:24:03;;;;;;;49.33;25.40;;;;;;;0.13;100.00;95394.94;4995345;28;20547;-68
2022/12/09 02:26:59;;;;;;;46.10;23.98;;;;;;;0.27;100.00;95404.63;4994873;28;20132;-70
2022/12/09 02:29:52;;;;;;;62.08;25.60;;;;;;;0.22;100.00;95391.38;4989771;28;20042;-70
2022/12/09 02:32:45;;;;;;;48.28;23.90;;;;;;;0.07;100.00;95390.88;4981924;28;20038;-69
2022/12/09 02:35:26;;;;;;;52.17;25.92;;;;;;;0.01;100.00;95391.44;4976339;28;20082;-68
2022/12/09 02:38:30;;;;;;;58.50;25.77;;;;;;;-0.11;100.00;95384.88;4993731;28;20042;-68
2022/12/09 02:41:01;;;;;;;49.67;25.33;;;;;;;-0.26;100.00;95380.88;4995813;28;20038;-68
2022/12/09 02:43:30;;;;;;;53.53;25.38;;;;;;;-0.16;100.00;95376.19;4991292;28;20564;-70
2022/12/09 02:45:58;;;;;;;54.60;26.47;;;;;;;-0.07;100.00;95374.25;4999299;28;20045;-68
2022/12/09 02:48:33;;;;;;;57.70;28.08;;;;;;;-0.18;100.00;95368.47;4993822;28;20043;-68
2022/12/09 02:51:03;;;;;;;58.45;26.77;;;;;;;-0.42;100.00;95377.97;5002389;28;20419;-68
2022/12/09 02:53:29;;;;;;;55.47;27.95;;;;;;;-0.55;100.00;95362.13;4996816;28;20049;-69
2022/12/09 02:55:56;;;;;;;58.40;28.48;;;;;;;-0.70;100.00;95361.59;4999895;28;20041;-69
2022/12/09 02:58:22;;;;;;;63.70;28.63;;;;;;;-0.72;100.00;95358.44;4995118;28;20893;-69
2022/12/09 03:00:47;;;;;;;65.68;30.88;;;;;;;-0.77;100.00;95348.66;4995710;28;20031;-68
2022/12/09 03:03:15;;;;;;;63.13;29.55;;;;;;;-0.69;100.00;95338.16;4969849;28;20503;-68
2022/12/09 03:05:50;;;;;;;67.25;32.13;;;;;;;-0.65;100.00;95339.06;4993883;28;20411;-71
2022/12/09 03:08:43;;;;;;;62.75;29.00;;;;;;;-0.77;100.00;95329.06;4988026;28;20041;-68
2022/12/09 03:11:12;;;;;;;64.90;30.38;;;;;;;-0.82;100.00;95332.72;4991714;28;20125;-69
2022/12/09 03:13:45;;;;;;;61.40;29.95;;;;;;;-0.79;100.00;95325.91;4976541;28;20042;-68
2022/12/09 03:16:13;;;;;;;67.10;30.88;;;;;;;-0.73;100.00;95329.97;4987321;28;20037;-68
2022/12/09 03:18:43;;;;;;;66.82;30.75;;;;;;;-0.73;100.00;95316.53;4998401;28;20560;-67
2022/12/09 03:21:12;;;;;;;59.28;28.95;;;;;;;-0.67;100.00;95312.50;4992120;28;20126;-67
2022/12/09 03:23:38;;;;;;;59.65;28.33;;;;;;;-0.43;100.00;95314.56;4994293;28;20049;-68
2022/12/09 03:26:05;;;;;;;62.30;28.75;;;;;;;-0.35;100.00;95322.88;4993682;28;20050;-70
2022/12/09 03:28:50;;;;;;;63.50;28.92;;;;;;;-0.48;100.00;95309.38;4996021;28;20057;-69
2022/12/09 03:31:20;;;;;;;58.35;26.48;;;;;;;-0.54;100.00;95308.00;4988061;28;20091;-68
2022/12/09 03:33:49;;;;;;;55.20;26.80;;;;;;;-0.48;100.00;95309.38;4995144;28;20473;-68
2022/12/09 03:36:16;;;;;;;57.67;27.93;;;;;;;-0.59;100.00;95308.97;4989223;28;20041;-68
2022/12/09 03:38:45;;;;;;;59.47;28.90;;;;;;;-0.71;100.00;95310.81;4995487;28;21082;-68
2022/12/09 03:41:18;;;;;;;58.92;28.27;;;;;;;-0.78;100.00;95312.13;4977952;28;20099;-69
2022/12/09 03:43:52;;;;;;;60.38;29.65;;;;;;;-0.72;100.00;95307.34;4980542;28;20042;-68
2022/12/09 03:46:19;;;;;;;60.65;27.58;;;;;;;-0.60;100.00;95307.41;4981026;28;20161;-68
2022/12/09 03:48:45;;;;;;;55.50;27.38;;;;;;;-0.51;100.00;95299.25;4992342;28;20506;-67
2022/12/09 03:51:17;;;;;;;54.80;27.65;;;;;;;-0.45;100.00;95297.97;4988298;28;20034;-66
2022/12/09 03:53:52;;;;;;;59.92;27.90;;;;;;;-0.57;100.00;95291.75;4985911;28;20046;-66
2022/12/09 03:56:27;;;;;;;54.00;26.67;;;;;;;-0.66;100.00;95283.75;4985568;28;20049;-67
2022/12/09 03:58:56;;;;;;;58.53;27.85;;;;;;;-0.60;100.00;95279.72;4996308;28;20064;-66
2022/12/09 04:01:23;;;;;;;55.10;27.10;;;;;;;-0.50;100.00;95275.88;4993537;28;20054;-68
2022/12/09 04:03:52;;;;;;;53.03;26.30;;;;;;;-0.43;100.00;95268.81;5001304;28;20037;-68
2022/12/09 04:06:17;;;;;;;50.78;26.02;;;;;;;-0.48;100.00;95263.66;4996151;28;20046;-67
2022/12/09 04:08:43;;;;;;;53.53;27.08;;;;;;;-0.51;100.00;95271.59;5007755;28;20053;-68
2022/12/09 04:11:08;;;;;;;50.25;26.05;;;;;;;-0.62;100.00;95271.22;5001396;28;20045;-68
2022/12/09 04:13:34;;;;;;;52.50;26.70;;;;;;;-0.55;100.00;95266.09;5000660;28;20038;-67
2022/12/09 04:16:00;;;;;;;54.05;26.50;;;;;;;-0.48;100.00;95250.19;5001337;28;20043;-67
2022/12/09 04:18:26;;;;;;;54.92;26.85;;;;;;;-0.48;100.00;95249.41;4994449;28;20062;-68
2022/12/09 04:20:53;;;;;;;52.05;26.35;;;;;;;-0.23;100.00;95244.91;4980561;28;20064;-68
2022/12/09 04:23:18;;;;;;;54.53;27.33;;;;;;;-0.44;100.00;95253.78;4977095;28;20403;-67
2022/12/09 04:25:44;;;;;;;53.05;25.88;;;;;;;-0.40;100.00;95254.72;4981256;28;20057;-67
2022/12/09 04:28:10;;;;;;;53.22;26.45;;;;;;;-0.69;100.00;95247.53;4997394;28;20132;-68
2022/12/09 04:30:36;;;;;;;56.17;26.45;;;;;;;-0.72;100.00;95234.75;5001908;28;20087;-67
2022/12/09 04:33:01;;;;;;;55.50;26.13;;;;;;;-0.59;100.00;95235.59;4999985;28;20037;-69
2022/12/09 04:35:27;;;;;;;54.42;25.63;;;;;;;-0.39;100.00;95232.06;5008917;28;20046;-69
2022/12/09 04:37:52;;;;;;;52.97;26.80;;;;;;;-0.33;100.00;95226.47;5001484;28;20128;-69
2022/12/09 04:40:18;;;;;;;54.80;27.17;;;;;;;-0.58;100.00;95226.41;4996287;28;20034;-69
2022/12/09 04:42:44;;;;;;;56.25;26.50;;;;;;;-0.58;100.00;95231.78;5001612;28;20500;-70
2022/12/09 04:45:10;;;;;;;54.20;27.52;;;;;;;-0.65;100.00;95218.88;5006192;28;20038;-68
2022/12/09 04:47:35;;;;;;;53.38;27.17;;;;;;;-0.67;100.00;95218.41;5006701;28;20042;-69
2022/12/09 04:50:01;;;;;;;56.63;27.20;;;;;;;-0.71;100.00;95216.72;5017037;28;20049;-69
2022/12/09 04:52:27;;;;;;;57.22;28.52;;;;;;;-0.77;100.00;95210.75;4999482;28;20499;-69
2022/12/09 04:54:52;;;;;;;55.70;26.70;;;;;;;-0.75;100.00;95210.44;5013138;28;20065;-67
2022/12/09 04:57:17;;;;;;;57.10;27.50;;;;;;;-0.84;100.00;95213.97;5007417;28;20053;-67
2022/12/09 04:59:43;;;;;;;58.88;29.08;;;;;;;-0.77;100.00;95208.84;5022066;28;20072;-69
2022/12/09 05:02:08;;;;;;;59.65;28.70;;;;;;;-0.87;100.00;95197.72;5016716;28;20045;-67
2022/12/09 05:04:34;;;;;;;57.72;26.65;;;;;;;-0.86;100.00;95194.69;5023367;28;20490;-67
2022/12/09 05:06:59;;;;;;;57.70;27.55;;;;;;;-0.80;100.00;95196.06;5003644;28;20037;-68
2022/12/09 05:09:24;;;;;;;58.17;28.58;;;;;;;-0.68;100.00;95192.66;5011910;28;20414;-68
2022/12/09 05:11:50;;;;;;;59.90;28.30;;;;;;;-0.67;100.00;95188.81;5005767;28;20042;-69
2022/12/09 05:14:17;;;;;;;55.17;27.08;;;;;;;-0.49;100.00;95185.97;5000351;28;20049;-68
2022/12/09 05:16:42;;;;;;;54.95;26.58;;;;;;;-0.34;100.00;95198.00;5013744;28;20426;-68
2022/12/09 05:19:08;;;;;;;55.40;26.05;;;;;;;-0.13;100.00;95190.63;5019895;28;20080;-67
2022/12/09 05:21:34;;;;;;;50.15;24.85;;;;;;;0.07;100.00;95196.25;5014271;28;20046;-69
2022/12/09 05:24:01;;;;;;;50.97;25.35;;;;;;;0.02;100.00;95197.28;5019333;28;20029;-69
2022/12/09 05:26:27;;;;;;;50.28;24.92;;;;;;;0.10;100.00;95196.38;5004005;28;20120;-67
2022/12/09 05:28:52;;;;;;;44.72;24.17;;;;;;;0.09;100.00;95191.31;5026088;28;20038;-69
2022/12/09 05:31:20;;;;;;;52.15;26.90;;;;;;;-0.06;100.00;95193.56;5018903;28;20077;-68
2022/12/09 05:33:46;;;;;;;53.35;26.20;;;;;;;-0.02;100.00;95191.78;5023419;28;20050;-69
2022/12/09 05:36:14;;;;;;;47.70;26.15;;;;;;;0.13;100.00;95186.88;5018315;28;20053;-69
2022/12/09 05:38:40;;;;;;;50.58;25.10;;;;;;;0.22;100.00;95187.53;5022887;28;20049;-68
2022/12/09 05:41:05;;;;;;;49.08;25.27;;;;;;;0.29;100.00;95184.25;5027622;28;20040;-69
2022/12/09 05:43:32;;;;;;;46.80;23.60;;;;;;;0.36;100.00;95177.19;5029445;28;20045;-68
2022/12/09 05:45:57;;;;;;;49.65;25.08;;;;;;;0.29;100.00;95170.78;5025420;28;20044;-68
2022/12/09 05:48:23;;;;;;;46.10;24.27;;;;;;;0.26;100.00;95177.66;5029149;28;20521;-69
2022/12/09 05:50:58;;;;;;;44.05;23.92;;;;;;;0.26;100.00;95177.66;5044836;28;20034;-68
2022/12/09 05:53:24;;;;;;;50.03;24.00;;;;;;;0.19;100.00;95182.81;5018622;28;20262;-69
2022/12/09 05:55:50;;;;;;;49.13;25.08;;;;;;;0.16;100.00;95183.47;5023874;28;20049;-66
2022/12/09 05:58:15;;;;;;;49.95;25.55;;;;;;;0.10;100.00;95191.00;5030986;28;20060;-68
2022/12/09 06:00:41;;;;;;;49.92;25.10;;;;;;;0.08;100.00;95182.47;5042211;28;20042;-68
2022/12/09 06:03:06;;;;;;;53.42;25.42;;;;;;;0.17;100.00;95190.44;5036508;28;20064;-69
2022/12/09 06:05:32;;;;;;;53.38;24.98;;;;;;;0.35;100.00;95194.47;5044400;28;20045;-69
2022/12/09 06:07:58;;;;;;;49.60;25.88;;;;;;;0.35;100.00;95191.78;5029921;28;20034;-69
2022/12/09 06:10:23;;;;;;;50.58;24.83;;;;;;;0.38;100.00;95196.50;5022017;28;20375;-69
2022/12/09 06:12:52;;;;;;;50.47;25.90;;;;;;;0.45;100.00;95195.13;5022097;28;20037;-68
2022/12/09 06:15:18;;;;;;;51.33;24.42;;;;;;;0.44;100.00;95191.66;5017966;28;20098;-69
2022/12/09 06:17:43;;;;;;;50.42;24.27;;;;;;;0.41;100.00;95192.34;5022395;28;20057;-70
2022/12/09 06:20:09;;;;;;;47.97;24.55;;;;;;;0.42;100.00;95206.59;5027129;28;20056;-66
2022/12/09 06:22:34;;;;;;;55.47;27.10;;;;;;;0.32;100.00;95200.53;5039387;28;20042;-70
2022/12/09 06:25:00;;;;;;;55.65;25.88;;;;;;;0.22;100.00;95194.81;5021864;28;20037;-71
2022/12/09 06:27:25;;;;;;;49.60;25.35;;;;;;;0.17;100.00;95188.53;5017435;28;20041;-71
2022/12/09 06:29:51;;;;;;;53.13;26.38;;;;;;;0.19;100.00;95188.97;5025603;28;20033;-69
2022/12/09 06:32:16;;;;;;;51.33;25.48;;;;;;;0.22;100.00;95189.41;5008350;28;20049;-67
2022/12/09 06:34:42;;;;;;;53.90;28.17;;;;;;;0.25;100.00;95189.53;5007661;28;20042;-67
2022/12/09 06:37:07;;;;;;;54.75;27.52;;;;;;;0.37;100.00;95178.75;5001092;28;20055;-68
2022/12/09 06:39:32;;;;;;;50.05;25.80;;;;;;;0.42;100.00;95185.06;5006762;28;20387;-69
2022/12/09 06:41:58;;;;;;;50.13;27.35;;;;;;;0.43;100.00;95178.53;4994949;28;20096;-70
2022/12/09 06:44:24;;;;;;;54.42;26.70;;;;;;;0.32;100.00;95189.75;4982699;28;20855;-68
2022/12/09 06:46:49;;;;;;;51.83;25.10;;;;;;;0.06;100.00;95181.25;4986102;28;20038;-68
2022/12/09 06:49:15;;;;;;;54.80;27.25;;;;;;;0.09;100.00;95177.88;4978469;28;20046;-68
2022/12/09 06:51:40;;;;;;;48.42;25.60;;;;;;;-0.01;100.00;95171.81;4990745;28;20072;-66
2022/12/09 06:54:05;;;;;;;51.60;25.30;;;;;;;0.14;100.00;95164.19;5048563;28;20042;-66
2022/12/09 06:56:31;;;;;;;51.35;26.73;;;;;;;0.30;100.00;95167.00;5007722;28;20046;-68
2022/12/09 06:58:56;;;;;;;53.80;26.48;;;;;;;0.38;100.00;95174.94;5006798;28;20114;-69
2022/12/09 07:01:24;;;;;;;47.90;25.77;;;;;;;0.47;100.00;95174.84;4994699;28;20054;-69
2022/12/09 07:03:54;;;;;;;48.13;25.52;;;;;;;0.50;100.00;95170.66;4992823;28;20464;-69
2022/12/09 07:06:35;;;;;;;52.08;24.60;;;;;;;0.55;100.00;95168.53;4995689;28;20402;-70
2022/12/09 07:09:06;;;;;;;51.88;24.85;;;;;;;0.47;100.00;95171.34;4994635;28;20410;-70
2022/12/09 07:11:32;;;;;;;50.33;25.83;;;;;;;0.54;100.00;95169.66;5002014;28;20132;-73
2022/12/09 07:13:57;;;;;;;55.35;26.50;;;;;;;0.49;100.00;95171.81;5004220;28;20069;-70
2022/12/09 07:16:23;;;;;;;53.38;26.63;;;;;;;0.48;100.00;95168.31;4990770;28;20099;-70
2022/12/09 07:18:48;;;;;;;47.67;24.88;;;;;;;0.45;100.00;95162.81;5002820;28;20045;-70
2022/12/09 07:21:16;;;;;;;50.88;24.20;;;;;;;0.46;100.00;95162.47;4995505;28;20092;-71
2022/12/09 07:23:42;;;;;;;54.70;25.95;;;;;;;0.51;100.00;95164.16;4992551;28;20050;-70
2022/12/09 07:26:08;;;;;;;53.78;28.13;;;;;;;0.54;100.00;95160.78;4990849;28;20686;-69
2022/12/09 07:28:35;;;;;;;51.53;27.30;;;;;;;0.56;100.00;95163.94;5009746;28;20042;-70
2022/12/09 07:31:01;;;;;;;51.85;26.88;;;;;;;0.56;100.00;95164.72;5010208;28;20115;-70
2022/12/09 07:33:27;;;;;;;50.25;27.55;;;;;;;0.55;100.00;95162.34;5002010;28;20041;-70
2022/12/09 07:35:57;;;;;;;53.97;27.75;;;;;;;0.51;100.00;95156.88;5005713;28;20388;-69
2022/12/09 07:38:24;;;;;;;51.35;29.48;;;;;;;0.51;100.00;95154.16;4982703;28;20077;-70
2022/12/09 07:40:50;;;;;;;59.25;28.25;;;;;;;0.49;100.00;95152.94;5000577;28;20038;-70
2022/12/09 07:43:15;;;;;;;58.65;28.35;;;;;;;0.55;100.00;95152.34;4987850;28;20045;-70
2022/12/09 07:45:41;;;;;;;52.33;26.70;;;;;;;0.65;100.00;95156.50;4976833;28;20058;-70
2022/12/09 07:48:08;;;;;;;52.33;26.08;;;;;;;0.59;100.00;95159.78;5004987;28;20045;-69
2022/12/09 07:50:34;;;;;;;51.45;26.35;;;;;;;0.52;100.00;95155.75;4994881;28;20042;-71
2022/12/09 07:52:59;;;;;;;52.17;25.83;;;;;;;0.50;100.00;95152.59;4982814;28;20035;-70
2022/12/09 07:55:25;;;;;;;48.10;25.13;;;;;;;0.57;100.00;95152.78;4982017;28;20609;-69
2022/12/09 07:57:51;;;;;;;46.22;25.52;;;;;;;0.53;100.00;95157.31;4986386;28;20077;-70
2022/12/09 08:00:17;;;;;;;46.40;26.33;;;;;;;0.48;100.00;95151.38;4980573;28;20041;-70
2022/12/09 08:02:42;;;;;;;50.30;26.35;;;;;;;0.61;100.00;95161.00;4999218;28;20065;-71
2022/12/09 08:05:08;;;;;;;46.92;26.52;;;;;;;0.52;100.00;95152.25;5030616;28;20501;-71
2022/12/09 08:07:34;;;;;;;50.53;25.00;;;;;;;0.37;100.00;95142.97;4978124;28;20559;-71
2022/12/09 08:09:59;;;;;;;54.58;32.22;;;;;;;0.34;100.00;95140.94;4982600;28;20038;-71
2022/12/09 08:12:24;;;;;;;47.35;27.40;;;;;;;0.44;100.00;95132.41;4978254;28;20496;-71
2022/12/09 08:14:50;;;;;;;46.33;24.27;;;;;;;0.52;100.00;95130.69;5017083;28;20033;-72
2022/12/09 08:17:16;;;;;;;47.22;25.05;;;;;;;0.57;100.00;95131.25;4976007;28;20065;-71
2022/12/09 08:19:41;;;;;;;50.70;26.73;;;;;;;0.72;100.00;95140.56;4981070;28;20034;-66
2022/12/09 08:22:07;;;;;;;47.13;23.98;;;;;;;0.82;100.00;95136.56;4985797;28;20544;-70
2022/12/09 08:24:33;;;;;;;44.08;24.42;;;;;;;0.64;100.00;95138.75;5000897;28;20042;-69
2022/12/09 08:26:59;;;;;;;44.38;23.73;;;;;;;0.63;100.00;95133.72;5002392;28;20503;-69
2022/12/09 08:29:24;;;;;;;55.00;27.05;;;;;;;0.69;100.00;95127.75;4995335;28;20166;-70
2022/12/09 08:31:50;;;;;;;45.85;25.73;;;;;;;0.62;100.00;95137.53;5001367;28;20576;-69
2022/12/09 08:34:15;;;;;;;46.40;24.70;;;;;;;0.78;100.00;95140.31;4996908;28;20033;-69
2022/12/09 08:36:41;;;;;;;41.63;22.77;;;;;;;0.74;100.00;95132.91;5001363;28;20085;-69
2022/12/09 08:39:07;;;;;;;45.45;24.20;;;;;;;0.67;100.00;95143.47;5001736;28;20045;-68
2022/12/09 08:41:34;;;;;;;42.63;24.60;;;;;;;0.50;100.00;95124.88;5006154;28;20038;-70
2022/12/09 08:44:09;;;;;;;46.47;27.38;;;;;;;0.63;100.00;95126.44;5005762;28;20042;-69
2022/12/09 08:46:36;;;;;;;45.92;26.10;;;;;;;0.83;100.00;95118.47;4971810;28;20055;-68
2022/12/09 08:49:03;;;;;;;46.88;24.08;;;;;;;0.94;100.00;95124.97;4982794;28;20038;-71
2022/12/09 08:51:29;;;;;;;46.38;25.67;;;;;;;1.16;100.00;95114.78;5019788;28;20053;-70
2022/12/09 08:53:57;;;;;;;39.42;23.08;;;;;;;1.17;100.00;95119.84;5001725;28;20042;-69
2022/12/09 08:56:23;;;;;;;55.90;29.05;;;;;;;0.82;100.00;95120.41;5018445;28;20042;-70
2022/12/09 08:58:48;;;;;;;45.45;24.92;;;;;;;0.72;100.00;95126.28;5027853;28;20029;-69
2022/12/09 09:01:19;;;;;;;43.45;24.58;;;;;;;0.86;100.00;95123.19;5008730;28;20415;-69
2022/12/09 09:03:45;;;;;;;48.25;24.85;;;;;;;1.01;100.00;95130.56;5009148;28;20045;-70
2022/12/09 09:06:11;;;;;;;47.08;23.75;;;;;;;1.27;100.00;95132.03;4997205;28;20053;-69
2022/12/09 09:08:38;;;;;;;42.80;23.48;;;;;;;1.33;100.00;95127.94;4998441;28;20456;-68
2022/12/09 09:11:09;;;;;;;46.08;23.17;;;;;;;1.44;100.00;95139.00;4987995;28;20234;-68
2022/12/09 09:13:36;;;;;;;45.55;23.52;;;;;;;1.44;100.00;95141.69;4994172;28;20924;-69
2022/12/09 09:16:02;;;;;;;43.92;24.33;;;;;;;1.47;100.00;95135.63;5000860;28;20073;-68
2022/12/09 09:18:27;;;;;;;42.13;23.08;;;;;;;1.50;100.00;95137.63;4990535;28;20046;-68
2022/12/09 09:20:57;;;;;;;42.95;22.70;;;;;;;1.48;100.00;95135.28;5002073;28;20062;-68
2022/12/09 09:23:23;;;;;;;42.42;23.10;;;;;;;1.52;100.00;95127.28;5002323;28;20594;-68
2022/12/09 09:25:49;;;;;;;37.10;22.33;;;;;;;1.64;100.00;95129.09;5007417;28;20609;-69
2022/12/09 09:28:14;;;;;;;41.53;24.25;;;;;;;1.69;100.00;95128.84;5007991;28;20044;-69
2022/12/09 09:30:39;;;;;;;42.65;22.63;;;;;;;1.63;100.00;95124.84;4976714;28;20054;-68
2022/12/09 09:33:06;;;;;;;42.28;22.60;;;;;;;1.82;100.00;95124.16;4997408;28;20069;-68
2022/12/09 09:35:32;;;;;;;41.58;22.02;;;;;;;1.67;100.00;95117.63;5003294;28;20041;-69
2022/12/09 09:37:57;;;;;;;39.83;21.77;;;;;;;1.46;100.00;95118.66;5006875;28;20045;-68
2022/12/09 09:40:24;;;;;;;37.00;22.02;;;;;;;1.62;100.00;95118.69;4998427;28;20133;-68
2022/12/09 09:42:51;;;;;;;41.63;22.80;;;;;;;1.70;100.00;95112.31;5002729;28;20459;-67
2022/12/09 09:45:19;;;;;;;38.65;21.83;;;;;;;1.83;100.00;95112.22;4996976;28;20038;-68
2022/12/09 09:47:54;;;;;;;41.28;22.27;;;;;;;1.94;100.00;95126.75;5002727;28;20136;-69
2022/12/09 09:50:42;;;;;;;40.95;24.00;;;;;;;1.84;100.00;95125.38;4999611;28;20072;-70
2022/12/09 09:53:25;;;;;;;37.65;21.65;;;;;;;1.58;100.00;95108.91;4979219;28;20102;-68
2022/12/09 09:56:23;;;;;;;46.92;23.98;;;;;;;1.76;100.00;95099.34;4985733;28;20121;-69
2022/12/09 09:59:25;;;;;;;41.53;22.45;;;;;;;1.86;100.00;95104.22;4980406;28;20038;-69
2022/12/09 10:02:01;;;;;;;41.85;22.95;;;;;;;2.01;100.00;95101.84;4980704;28;20403;-69
2022/12/09 10:04:44;;;;;;;40.67;23.38;;;;;;;1.96;100.00;95102.88;5027721;28;20049;-68
2022/12/09 10:07:32;;;;;;;39.13;21.88;;;;;;;2.06;100.00;95098.88;4993991;28;20053;-68
2022/12/09 10:10:05;;;;;;;37.47;21.92;;;;;;;2.07;100.00;95093.13;5001548;28;20049;-68
2022/12/09 10:12:56;;;;;;;37.17;21.13;;;;;;;2.12;100.00;95099.41;4998484;28;20046;-68
2022/12/09 10:15:28;;;;;;;38.47;22.17;;;;;;;2.07;100.00;95089.63;4996438;28;20193;-67
2022/12/09 10:18:11;;;;;;;39.95;21.80;;;;;;;2.07;100.00;95086.94;5007714;28;20046;-66
2022/12/09 10:20:38;;;;;;;39.67;21.52;;;;;;;2.08;100.00;95083.13;5005014;28;20552;-67
2022/12/09 10:23:10;;;;;;;41.70;22.00;;;;;;;1.84;100.00;95086.81;5000145;28;20068;-66
2022/12/09 10:25:41;;;;;;;42.45;22.15;;;;;;;1.80;100.00;95085.94;5005871;28;20042;-67
2022/12/09 10:28:23;;;;;;;37.95;21.10;;;;;;;1.97;100.00;95090.97;4990543;28;20053;-69
2022/12/09 10:30:50;;;;;;;38.30;20.75;;;;;;;1.85;100.00;95083.75;4975023;28;20046;-69
2022/12/09 10:33:18;;;;;;;39.38;23.25;;;;;;;1.89;100.00;95081.13;4997027;28;20084;-71
2022/12/09 10:35:45;;;;;;;44.35;23.52;;;;;;;2.12;100.00;95078.56;4983598;28;20596;-68
2022/12/09 10:38:14;;;;;;;39.00;22.67;;;;;;;2.22;100.00;95078.03;4994407;28;20052;-69
2022/12/09 10:40:45;;;;;;;38.63;22.27;;;;;;;2.19;100.00;95064.44;4986875;28;20036;-69
2022/12/09 10:43:34;;;;;;;36.30;21.50;;;;;;;2.27;100.00;95060.78;5019708;28;20282;-68
2022/12/09 10:46:01;;;;;;;41.30;23.00;;;;;;;2.36;100.00;95055.16;4984629;28;20125;-70
2022/12/09 10:48:33;;;;;;;41.30;22.80;;;;;;;2.35;100.00;95048.19;4984546;28;20090;-67
2022/12/09 10:51:05;;;;;;;43.28;23.55;;;;;;;2.35;100.00;95048.97;5000889;28;20096;-70
2022/12/09 10:53:32;;;;;;;40.38;22.77;;;;;;;2.42;100.00;95051.81;5000620;28;20037;-70
2022/12/09 10:56:01;;;;;;;39.50;21.65;;;;;;;2.33;100.00;95048.56;4993176;28;20052;-69
2022/12/09 10:58:29;;;;;;;39.47;21.73;;;;;;;2.30;100.00;95043.84;4996562;28;20053;-68
2022/12/09 11:01:10;;;;;;;38.65;22.17;;;;;;;2.19;100.00;95049.00;5001916;28;20052;-69
2022/12/09 11:03:45;;;;;;;39.97;22.00;;;;;;;2.11;100.00;95041.91;5013536;28;20049;-70
2022/12/09 11:06:22;;;;;;;39.75;22.45;;;;;;;2.15;100.00;95045.47;5012762;28;20044;-69
2022/12/09 11:08:59;;;;;;;37.50;21.58;;;;;;;2.23;100.00;95035.59;5001611;28;20053;-70
2022/12/09 11:11:45;;;;;;;39.95;22.23;;;;;;;1.91;100.00;95024.88;4995423;28;20044;-70
2022/12/09 11:14:39;;;;;;;40.80;21.98;;;;;;;1.94;100.00;95026.09;5001182;28;20046;-71
2022/12/09 11:17:29;;;;;;;41.13;21.40;;;;;;;1.98;100.00;95022.34;4997726;28;20041;-70
2022/12/09 11:20:04;;;;;;;39.28;22.38;;;;;;;1.80;100.00;95021.94;5003694;28;20046;-70
2022/12/09 11:22:40;;;;;;;43.97;23.63;;;;;;;1.84;100.00;95028.19;5033995;28;20037;-69